Time;durP1;ratioP1;P1;durP2;ratioP2;P2;SDS_P1;SDS_P2;PMS_P1;PMS_P2;Temp;Humidity;BMP_temperature;BMP_pressure;BME280_temperature;BME280_humidity;BME280_pressure;Samples;Min_cycle;Max_cycle;Signal;HPM_P1;HPM_P2
2021/12/30 00:01:11;;;;;;;61.80;8.13;;;10.00;99.90;;;;;;5079137;28;20044;-89
2021/12/30 00:03:37;;;;;;;59.95;6.88;;;8.10;99.90;;;;;;5062786;28;20052;-89
2021/12/30 00:06:03;;;;;;;70.47;9.02;;;12.30;99.90;;;;;;5079267;28;20462;-89
2021/12/30 00:08:29;;;;;;;60.55;7.78;;;9.10;99.90;;;;;;5079328;28;20076;-89
2021/12/30 00:10:55;;;;;;;75.45;8.10;;;10.50;99.90;;;;;;5078905;28;20064;-89
2021/12/30 00:13:21;;;;;;;53.10;8.02;;;11.90;99.90;;;;;;5062369;28;20032;-89
2021/12/30 00:15:47;;;;;;;39.25;6.05;;;9.60;99.90;;;;;;5062742;28;20125;-89
2021/12/30 00:18:12;;;;;;;66.40;8.75;;;9.80;99.90;;;;;;5062306;28;20396;-89
2021/12/30 00:20:39;;;;;;;54.28;8.70;;;8.40;99.90;;;;;;5078793;28;20538;-89
2021/12/30 00:23:07;;;;;;;61.38;7.68;;;6.80;99.90;;;;;;5078561;28;20040;-89
2021/12/30 00:25:39;;;;;;;55.22;6.75;;;6.90;99.90;;;;;;5079605;28;20048;-89
2021/12/30 00:28:07;;;;;;;81.75;9.50;;;9.40;99.90;;;;;;5061717;28;20499;-89
2021/12/30 00:30:33;;;;;;;54.55;6.85;;;8.80;99.90;;;;;;5061888;28;20125;-89
2021/12/30 00:32:58;;;;;;;59.65;8.68;;;10.00;99.90;;;;;;5078731;28;20039;-89
2021/12/30 00:35:24;;;;;;;46.42;6.88;;;10.30;99.90;;;;;;5078485;28;20083;-89
2021/12/30 00:37:50;;;;;;;63.25;8.80;;;9.00;99.90;;;;;;5078242;28;20048;-89
2021/12/30 00:40:16;;;;;;;61.53;7.55;;;8.30;99.90;;;;;;5095718;28;20135;-89
2021/12/30 00:42:41;;;;;;;45.97;7.15;;;9.90;99.90;;;;;;5090979;28;20543;-89
2021/12/30 00:45:07;;;;;;;65.22;8.15;;;7.60;99.90;;;;;;5063609;28;20044;-89
2021/12/30 00:47:33;;;;;;;36.83;6.40;;;9.30;99.90;;;;;;5057477;28;20040;-89
2021/12/30 00:49:59;;;;;;;48.88;6.78;;;11.00;99.90;;;;;;5058149;28;20059;-89
2021/12/30 00:52:25;;;;;;;41.95;7.18;;;11.20;99.90;;;;;;5075054;28;20113;-89
2021/12/30 00:54:51;;;;;;;54.00;7.72;;;9.60;99.90;;;;;;5061341;28;20047;-88
2021/12/30 00:57:17;;;;;;;69.72;9.45;;;8.30;99.90;;;;;;5061240;28;20040;-89
2021/12/30 00:59:43;;;;;;;53.38;7.57;;;9.00;99.90;;;;;;5080994;28;20101;-89
2021/12/30 01:02:08;;;;;;;60.55;8.07;;;8.80;99.90;;;;;;5081617;28;20408;-89
2021/12/30 01:04:34;;;;;;;68.22;7.70;;;11.50;99.90;;;;;;5080833;28;20044;-89
2021/12/30 01:07:00;;;;;;;71.70;8.25;;;10.20;99.90;;;;;;5059878;28;20040;-89
2021/12/30 01:09:26;;;;;;;52.75;6.30;;;8.30;99.90;;;;;;5061008;28;20047;-89
2021/12/30 01:11:52;;;;;;;60.95;7.82;;;11.70;99.90;;;;;;5061093;28;20032;-89
2021/12/30 01:14:23;;;;;;;30.17;5.40;;;9.60;99.90;;;;;;5077751;28;20040;-89
2021/12/30 01:16:53;;;;;;;44.45;6.72;;;9.70;99.90;;;;;;5077751;28;20174;-89
2021/12/30 01:21:48;;;;;;;54.90;6.93;;;11.30;99.90;;;;;;5094482;28;20073;-89
2021/12/30 01:24:14;;;;;;;48.50;6.10;;;9.60;99.90;;;;;;5077611;28;20044;-89
2021/12/30 01:26:40;;;;;;;55.70;6.72;;;9.00;99.90;;;;;;5077190;28;20048;-89
2021/12/30 01:29:05;;;;;;;43.60;7.28;;;9.80;99.90;;;;;;5077677;28;20414;-89
2021/12/30 01:31:31;;;;;;;40.78;6.00;;;9.20;99.90;;;;;;5077256;28;20040;-89
2021/12/30 01:33:57;;;;;;;51.33;6.32;;;10.40;99.90;;;;;;5061492;28;20127;-89
2021/12/30 01:36:26;;;;;;;39.22;5.78;;;9.30;99.90;;;;;;5077392;28;20105;-89
2021/12/30 01:38:52;;;;;;;54.58;8.05;;;8.50;99.90;;;;;;5077415;28;20036;-89
2021/12/30 01:41:18;;;;;;;58.30;6.93;;;9.50;99.90;;;;;;5077808;28;20052;-89
2021/12/30 01:43:43;;;;;;;47.65;6.60;;;8.60;99.90;;;;;;5077058;28;20067;-89
2021/12/30 01:46:10;;;;;;;61.13;8.50;;;8.60;99.90;;;;;;5089016;28;20044;-89
2021/12/30 01:48:37;;;;;;;50.38;7.20;;;9.90;99.90;;;;;;5094200;28;20100;-89
2021/12/30 01:51:04;;;;;;;42.20;6.30;;;10.00;99.90;;;;;;5077001;28;20044;-89
2021/12/30 01:53:30;;;;;;;55.42;6.95;;;8.70;99.90;;;;;;5077126;28;20051;-89
2021/12/30 01:55:56;;;;;;;50.90;6.82;;;8.50;99.90;;;;;;5077042;28;20403;-89
2021/12/30 01:58:21;;;;;;;50.58;8.32;;;8.70;99.90;;;;;;5077311;28;20047;-89
2021/12/30 02:00:49;;;;;;;59.28;7.03;;;9.30;99.90;;;;;;5076525;28;20072;-89
2021/12/30 02:03:16;;;;;;;53.85;6.78;;;9.50;99.90;;;;;;5060025;28;20044;-89
2021/12/30 02:05:42;;;;;;;69.80;8.75;;;10.00;99.90;;;;;;5060078;28;20155;-89
2021/12/30 02:08:13;;;;;;;54.75;7.45;;;9.40;99.90;;;;;;5070048;28;20063;-89
2021/12/30 02:10:40;;;;;;;46.10;6.32;;;10.60;99.90;;;;;;5076380;28;20044;-89
2021/12/30 02:13:07;;;;;;;47.00;7.78;;;10.10;99.90;;;;;;5059965;28;20050;-89
2021/12/30 02:15:33;;;;;;;52.58;7.57;;;10.10;99.90;;;;;;5093446;28;20080;-89
2021/12/30 02:18:01;;;;;;;53.05;6.85;;;11.20;99.90;;;;;;5093759;28;20054;-89
2021/12/30 02:20:45;;;;;;;57.50;7.65;;;10.10;99.90;;;;;;5076693;28;20097;-89
2021/12/30 02:23:14;;;;;;;47.33;6.80;;;9.10;99.90;;;;;;5076358;28;20055;-90
2021/12/30 02:25:40;;;;;;;35.25;5.82;;;8.70;99.90;;;;;;5076593;28;20399;-89
2021/12/30 02:28:10;;;;;;;60.13;7.82;;;8.90;99.90;;;;;;5085968;28;20139;-89
2021/12/30 02:30:36;;;;;;;49.22;7.38;;;9.80;99.90;;;;;;5093078;28;20087;-89
2021/12/30 02:33:02;;;;;;;53.15;6.10;;;10.30;99.90;;;;;;5072297;28;20427;-89
2021/12/30 02:35:28;;;;;;;58.88;8.18;;;9.00;99.90;;;;;;5073084;28;20036;-89
2021/12/30 02:37:54;;;;;;;66.63;8.70;;;11.30;99.90;;;;;;5088786;28;20051;-89
2021/12/30 02:40:41;;;;;;;51.28;7.78;;;9.00;99.90;;;;;;5086410;28;20088;-89
2021/12/30 02:43:11;;;;;;;33.15;5.18;;;9.00;99.90;;;;;;5081094;28;20109;-89
2021/12/30 02:45:36;;;;;;;43.10;6.20;;;11.20;99.90;;;;;;5072914;28;20049;-89
2021/12/30 02:48:02;;;;;;;59.85;8.60;;;10.60;99.90;;;;;;5070956;28;20390;-90
2021/12/30 02:50:29;;;;;;;55.20;7.20;;;9.30;99.90;;;;;;5072457;28;20040;-89
2021/12/30 02:52:55;;;;;;;46.83;7.10;;;8.90;99.90;;;;;;5055981;28;20093;-89
2021/12/30 02:55:21;;;;;;;46.40;6.97;;;10.90;99.90;;;;;;5057091;28;20040;-89
2021/12/30 02:57:47;;;;;;;49.75;7.28;;;11.40;99.90;;;;;;5072518;28;20059;-89
2021/12/30 03:00:13;;;;;;;39.45;6.10;;;11.80;99.90;;;;;;5072721;28;20045;-89
2021/12/30 03:02:39;;;;;;;48.33;6.82;;;9.50;99.90;;;;;;5072523;28;20047;-90
2021/12/30 03:05:07;;;;;;;41.03;7.28;;;11.10;99.90;;;;;;5072731;28;20099;-90
2021/12/30 03:07:34;;;;;;;32.25;7.07;;;9.30;99.90;;;;;;5055940;28;20411;-90
2021/12/30 03:09:59;;;;;;;30.73;6.18;;;11.70;99.90;;;;;;5072263;28;20041;-90
2021/12/30 03:12:25;;;;;;;42.75;6.53;;;10.60;99.90;;;;;;5068393;28;20424;-89
2021/12/30 03:14:51;;;;;;;29.58;4.97;;;12.10;99.90;;;;;;5059020;28;20041;-89
2021/12/30 03:17:17;;;;;;;39.97;6.25;;;11.40;99.90;;;;;;5067079;28;20109;-89
2021/12/30 03:19:43;;;;;;;36.88;6.03;;;10.50;99.90;;;;;;5065943;28;20060;-89
2021/12/30 03:22:09;;;;;;;38.00;5.93;;;11.20;99.90;;;;;;5055409;28;20123;-89
2021/12/30 03:24:35;;;;;;;43.67;7.78;;;10.80;99.90;;;;;;5072521;28;20043;-89
2021/12/30 03:27:03;;;;;;;31.90;6.53;;;10.90;99.90;;;;;;5062419;28;20040;-90
2021/12/30 03:29:28;;;;;;;25.52;5.00;;;9.70;99.90;;;;;;5075266;28;20062;-89
2021/12/30 03:31:54;;;;;;;38.60;6.57;;;11.90;99.90;;;;;;5058761;28;20040;-89
2021/12/30 03:34:20;;;;;;;61.97;6.70;;;11.50;99.90;;;;;;5058703;28;20140;-89
2021/12/30 03:36:45;;;;;;;42.55;5.90;;;11.20;99.90;;;;;;5075303;28;20109;-89
2021/12/30 03:39:13;;;;;;;36.50;5.32;;;10.60;99.90;;;;;;5075326;28;20075;-89
2021/12/30 03:41:39;;;;;;;31.27;6.28;;;11.20;99.90;;;;;;5075348;28;20036;-89
2021/12/30 03:44:05;;;;;;;41.95;6.88;;;11.50;99.90;;;;;;5075281;28;20044;-89
2021/12/30 03:46:31;;;;;;;34.13;6.25;;;9.50;99.90;;;;;;5059480;28;20043;-89
2021/12/30 03:48:58;;;;;;;48.72;6.78;;;9.90;99.90;;;;;;5074684;28;20056;-89
2021/12/30 03:51:25;;;;;;;56.83;8.77;;;11.40;99.90;;;;;;5075200;28;20131;-89
2021/12/30 03:53:54;;;;;;;44.47;5.78;;;11.30;99.90;;;;;;5058710;28;20090;-89
2021/12/30 03:56:24;;;;;;;41.05;6.50;;;11.40;99.90;;;;;;5075186;28;20564;-89
2021/12/30 03:58:50;;;;;;;58.78;7.40;;;11.00;99.90;;;;;;5075445;28;20412;-89
2021/12/30 04:01:20;;;;;;;43.55;7.15;;;9.90;99.90;;;;;;5058531;28;20040;-89
2021/12/30 04:03:47;;;;;;;46.90;6.85;;;10.90;99.90;;;;;;5075145;28;20048;-89
2021/12/30 04:06:14;;;;;;;51.33;8.68;;;9.80;99.90;;;;;;5091861;28;20082;-90
2021/12/30 04:08:40;;;;;;;42.80;6.30;;;11.40;99.90;;;;;;5075717;28;20040;-89
2021/12/30 04:11:07;;;;;;;45.25;6.28;;;10.00;99.90;;;;;;5058434;28;20125;-89
2021/12/30 04:13:34;;;;;;;37.65;5.88;;;12.30;99.90;;;;;;5091692;28;20040;-89
2021/12/30 04:16:00;;;;;;;43.25;6.22;;;10.70;99.90;;;;;;5075275;28;20074;-89
2021/12/30 04:18:26;;;;;;;43.30;8.63;;;10.60;99.90;;;;;;5075274;28;20316;-89
2021/12/30 04:20:53;;;;;;;34.65;6.22;;;10.50;99.90;;;;;;5074494;28;20067;-89
2021/12/30 04:23:19;;;;;;;41.05;6.70;;;10.60;99.90;;;;;;5057908;28;20115;-89
2021/12/30 04:25:46;;;;;;;54.65;7.43;;;10.60;99.90;;;;;;5058432;28;20233;-89
2021/12/30 04:28:12;;;;;;;54.60;8.55;;;10.70;99.90;;;;;;5058074;28;20040;-90
2021/12/30 04:30:38;;;;;;;50.10;7.70;;;11.00;99.90;;;;;;5058041;28;20043;-89
2021/12/30 04:33:04;;;;;;;43.85;7.10;;;10.50;99.90;;;;;;5075240;28;20098;-89
2021/12/30 04:35:34;;;;;;;52.40;7.75;;;12.80;99.90;;;;;;5075247;28;20043;-90
2021/12/30 04:37:59;;;;;;;50.80;7.72;;;11.20;99.90;;;;;;5074947;28;20040;-89
2021/12/30 04:40:27;;;;;;;66.97;7.75;;;12.40;99.90;;;;;;5076193;28;20032;-89
2021/12/30 04:42:53;;;;;;;44.22;7.03;;;12.30;99.90;;;;;;5058384;28;20133;-90
2021/12/30 04:45:19;;;;;;;42.70;6.88;;;13.10;99.90;;;;;;5075285;28;20044;-89
2021/12/30 04:47:45;;;;;;;38.55;6.38;;;12.80;99.90;;;;;;5058405;28;20075;-89
2021/12/30 04:50:12;;;;;;;49.35;8.18;;;11.00;99.90;;;;;;5054786;28;20067;-89
2021/12/30 04:52:39;;;;;;;50.13;7.97;;;11.60;99.90;;;;;;5061585;28;20121;-89
2021/12/30 04:55:06;;;;;;;42.22;6.13;;;13.80;99.90;;;;;;5061645;28;20040;-89
2021/12/30 04:57:31;;;;;;;50.00;8.07;;;11.60;99.90;;;;;;5078255;28;20044;-90
2021/12/30 04:59:57;;;;;;;39.90;7.05;;;12.10;99.90;;;;;;5078264;28;20127;-89
2021/12/30 05:02:28;;;;;;;35.95;7.03;;;12.10;99.90;;;;;;5078030;28;20446;-89
2021/12/30 05:04:54;;;;;;;45.15;6.90;;;13.60;99.90;;;;;;5078137;28;20115;-90
2021/12/30 05:07:19;;;;;;;54.67;7.97;;;12.50;99.90;;;;;;5078019;28;20075;-89
2021/12/30 05:09:45;;;;;;;43.55;6.75;;;12.20;99.90;;;;;;5061335;28;20036;-89
2021/12/30 05:12:11;;;;;;;40.00;7.40;;;11.30;99.90;;;;;;5077826;28;20040;-90
2021/12/30 05:14:36;;;;;;;51.30;6.85;;;11.20;99.90;;;;;;5077850;28;20061;-89
2021/12/30 05:17:03;;;;;;;33.33;5.55;;;11.60;99.90;;;;;;5077875;28;20051;-89
2021/12/30 05:19:30;;;;;;;29.27;6.30;;;11.30;99.90;;;;;;5078281;28;20043;-89
2021/12/30 05:21:57;;;;;;;25.92;6.90;;;11.50;99.90;;;;;;5077878;28;20062;-89
2021/12/30 05:24:22;;;;;;;44.25;7.70;;;11.10;99.90;;;;;;5077896;28;20152;-89
2021/12/30 05:26:48;;;;;;;45.17;7.63;;;12.50;99.90;;;;;;5060985;28;20075;-89
2021/12/30 05:29:15;;;;;;;29.63;7.22;;;12.20;99.90;;;;;;5076476;28;20097;-89
2021/12/30 05:31:41;;;;;;;53.42;8.45;;;11.20;99.90;;;;;;5060490;28;20136;-89
2021/12/30 05:34:07;;;;;;;31.10;7.00;;;13.00;99.90;;;;;;5078144;28;20044;-89
2021/12/30 05:36:33;;;;;;;43.13;8.20;;;12.10;99.90;;;;;;5060528;28;20047;-89
2021/12/30 05:38:58;;;;;;;32.20;7.25;;;11.80;99.90;;;;;;5077516;28;20036;-89
2021/12/30 05:41:26;;;;;;;48.42;7.70;;;11.90;99.90;;;;;;5077654;28;20090;-89
2021/12/30 05:43:52;;;;;;;32.38;6.40;;;11.00;99.90;;;;;;5077642;28;20480;-89
2021/12/30 05:46:18;;;;;;;36.60;7.80;;;12.30;99.90;;;;;;5077553;28;20086;-89
2021/12/30 05:48:44;;;;;;;25.08;7.03;;;11.30;99.90;;;;;;5060557;28;20076;-89
2021/12/30 05:51:09;;;;;;;44.95;9.27;;;12.20;99.90;;;;;;5060350;28;20046;-89
2021/12/30 05:53:35;;;;;;;33.08;7.55;;;13.00;99.90;;;;;;5059606;28;20040;-88
2021/12/30 05:56:01;;;;;;;28.88;7.88;;;12.10;99.90;;;;;;5076612;28;20048;-88
2021/12/30 05:58:27;;;;;;;26.92;7.55;;;12.60;99.90;;;;;;5060577;28;20412;-89
2021/12/30 06:00:52;;;;;;;40.00;7.82;;;12.10;99.90;;;;;;5060316;28;20066;-89
2021/12/30 06:03:19;;;;;;;20.08;6.35;;;11.90;99.90;;;;;;5076998;28;20044;-89
2021/12/30 06:05:47;;;;;;;37.22;9.25;;;11.50;99.90;;;;;;5060418;28;20401;-88
2021/12/30 06:08:12;;;;;;;37.78;9.32;;;11.50;99.90;;;;;;5076661;28;20040;-89
2021/12/30 06:10:39;;;;;;;21.05;6.68;;;10.90;99.90;;;;;;5060153;28;20044;-89
2021/12/30 06:13:05;;;;;;;29.90;7.43;;;11.30;99.90;;;;;;5076787;28;20051;-88
2021/12/30 06:15:31;;;;;;;28.08;7.40;;;12.10;99.90;;;;;;5076534;28;20408;-89
2021/12/30 06:17:56;;;;;;;24.48;7.38;;;11.80;99.90;;;;;;5059761;28;20056;-89
2021/12/30 06:20:22;;;;;;;32.30;9.13;;;11.80;99.90;;;;;;5076545;28;20141;-88
2021/12/30 06:22:49;;;;;;;23.27;6.68;;;13.30;99.90;;;;;;5076344;28;20040;-88
2021/12/30 06:25:15;;;;;;;14.98;5.28;;;11.70;99.90;;;;;;5076483;28;20079;-88
2021/12/30 06:27:41;;;;;;;23.05;6.30;;;10.30;99.90;;;;;;5059065;28;20060;-88
2021/12/30 06:30:08;;;;;;;26.40;6.82;;;11.70;99.90;;;;;;5076291;28;20052;-88
2021/12/30 06:32:33;;;;;;;24.65;6.78;;;11.70;99.90;;;;;;5059953;28;20050;-88
2021/12/30 06:34:59;;;;;;;14.95;5.93;;;12.50;99.90;;;;;;5076251;28;20869;-89
2021/12/30 06:37:25;;;;;;;21.73;5.78;;;11.80;99.90;;;;;;5075414;28;20477;-88
2021/12/30 06:39:51;;;;;;;15.73;5.05;;;14.30;99.90;;;;;;5075771;28;20090;-89
2021/12/30 06:42:16;;;;;;;15.95;4.68;;;12.40;99.90;;;;;;5076258;28;20044;-89
2021/12/30 06:44:42;;;;;;;21.10;5.70;;;13.50;99.90;;;;;;5076012;28;20048;-88
2021/12/30 06:47:09;;;;;;;20.80;5.13;;;10.70;99.90;;;;;;5076127;28;20207;-89
2021/12/30 06:49:37;;;;;;;15.85;4.10;;;11.20;99.90;;;;;;5075961;28;20040;-89
2021/12/30 06:52:05;;;;;;;17.80;4.30;;;11.00;99.90;;;;;;5059188;28;20040;-89
2021/12/30 06:54:31;;;;;;;22.40;4.63;;;11.80;99.90;;;;;;5059366;28;20071;-89
2021/12/30 06:56:59;;;;;;;9.95;3.25;;;13.00;99.90;;;;;;5076057;28;20052;-89
2021/12/30 06:59:25;;;;;;;18.70;3.97;;;10.60;99.90;;;;;;5075909;28;20086;-89
2021/12/30 07:01:51;;;;;;;17.05;3.72;;;11.20;99.90;;;;;;5075745;28;20079;-89
2021/12/30 07:04:17;;;;;;;14.65;3.30;;;11.40;99.90;;;;;;5074863;28;20044;-89
2021/12/30 07:06:42;;;;;;;13.82;3.30;;;9.90;99.90;;;;;;5059053;28;20373;-89
2021/12/30 07:09:08;;;;;;;8.90;3.35;;;13.00;99.90;;;;;;5058766;28;20043;-89
2021/12/30 07:11:34;;;;;;;13.20;3.53;;;10.70;99.90;;;;;;5075650;28;20047;-91
2021/12/30 07:14:00;;;;;;;14.85;3.10;;;10.20;99.90;;;;;;5075854;28;20082;-92
2021/12/30 07:16:25;;;;;;;18.05;3.55;;;10.80;99.90;;;;;;5076184;28;20131;-92
2021/12/30 07:18:51;;;;;;;6.55;3.13;;;13.80;99.90;;;;;;5059690;28;20047;-92
2021/12/30 07:21:17;;;;;;;18.85;3.58;;;13.30;99.90;;;;;;5074890;28;20420;-94
2021/12/30 07:23:43;;;;;;;10.80;3.47;;;11.40;99.90;;;;;;5056041;28;20043;-88
2021/12/30 07:26:09;;;;;;;15.73;3.90;;;13.20;99.90;;;;;;5075804;28;20052;-92
2021/12/30 07:28:34;;;;;;;13.60;3.40;;;10.70;99.90;;;;;;5075350;28;20059;-96
2021/12/30 07:31:00;;;;;;;16.83;4.07;;;13.80;99.90;;;;;;5064740;28;20040;-93
2021/12/30 07:33:26;;;;;;;21.20;4.50;;;11.90;99.90;;;;;;5058759;28;20040;-92
2021/12/30 07:35:51;;;;;;;16.92;4.50;;;11.50;99.90;;;;;;5058070;28;20453;-93
2021/12/30 07:38:17;;;;;;;18.77;4.13;;;10.30;99.90;;;;;;5053211;28;20237;-91
2021/12/30 07:40:43;;;;;;;21.50;3.85;;;10.00;99.90;;;;;;5069161;28;20047;-93
2021/12/30 07:43:09;;;;;;;29.27;4.45;;;11.30;99.90;;;;;;5077934;28;20040;-96
2021/12/30 07:45:35;;;;;;;20.80;3.70;;;11.20;99.90;;;;;;5056324;28;20499;-91
2021/12/30 07:48:03;;;;;;;23.35;4.18;;;12.10;99.90;;;;;;5053112;28;20079;-91
2021/12/30 07:50:29;;;;;;;13.98;3.83;;;11.90;99.90;;;;;;5056806;28;20061;-88
2021/12/30 07:52:55;;;;;;;29.88;5.30;;;12.10;99.90;;;;;;5068786;28;20119;-92
2021/12/30 07:55:21;;;;;;;27.83;4.82;;;11.70;99.90;;;;;;5058210;28;20385;-93
2021/12/30 07:57:47;;;;;;;25.80;4.97;;;14.10;99.90;;;;;;5056521;28;20094;-91
2021/12/30 08:00:16;;;;;;;27.65;5.50;;;11.20;99.90;;;;;;5056025;28;20044;-93
2021/12/30 08:02:43;;;;;;;18.25;3.95;;;10.40;99.90;;;;;;5072023;28;20658;-91
2021/12/30 08:05:11;;;;;;;28.60;5.25;;;12.90;99.90;;;;;;5054611;28;20044;-90
2021/12/30 08:07:36;;;;;;;37.47;5.20;;;11.80;99.90;;;;;;5075493;28;20086;-92
2021/12/30 08:10:03;;;;;;;26.88;4.40;;;12.30;99.90;;;;;;5075965;28;20075;-92
2021/12/30 08:12:38;;;;;;;29.95;4.78;;;12.20;99.90;;;;;;5067018;28;20036;-93
2021/12/30 08:15:06;;;;;;;31.35;4.35;;;10.30;99.90;;;;;;5062468;28;20044;-92
2021/12/30 08:17:32;;;;;;;30.67;4.55;;;11.70;99.90;;;;;;5062110;28;20086;-90
2021/12/30 08:19:58;;;;;;;43.60;4.97;;;11.40;99.90;;;;;;5078517;28;20047;-90
2021/12/30 08:22:24;;;;;;;27.77;4.30;;;9.70;99.90;;;;;;5060772;28;20044;-91
2021/12/30 08:24:52;;;;;;;31.45;4.97;;;14.30;99.90;;;;;;5050796;28;20047;-91
2021/12/30 08:27:20;;;;;;;28.73;4.45;;;12.10;99.90;;;;;;5094448;28;20514;-89
2021/12/30 08:29:46;;;;;;;25.33;4.05;;;10.30;99.90;;;;;;5061988;28;20044;-91
2021/12/30 08:32:13;;;;;;;28.60;4.35;;;10.20;99.90;;;;;;5061586;28;20503;-90
2021/12/30 08:34:40;;;;;;;22.85;3.60;;;10.50;99.90;;;;;;5077022;28;20051;-90
2021/12/30 08:37:06;;;;;;;33.88;5.03;;;12.60;99.90;;;;;;5084966;28;20555;-91
2021/12/30 08:39:35;;;;;;;28.60;4.45;;;11.30;99.90;;;;;;5056946;28;20040;-86
2021/12/30 08:42:03;;;;;;;23.52;3.70;;;10.50;99.90;;;;;;5057245;28;20497;-86
2021/12/30 08:44:31;;;;;;;23.77;4.15;;;11.10;99.90;;;;;;5072685;28;20507;-88
2021/12/30 08:46:57;;;;;;;24.58;4.47;;;11.90;99.90;;;;;;5055919;28;20062;-87
2021/12/30 08:49:24;;;;;;;31.00;5.13;;;10.20;99.90;;;;;;5057937;28;20028;-89
2021/12/30 08:51:52;;;;;;;29.77;4.78;;;11.90;99.90;;;;;;5066468;28;20134;-88
2021/12/30 08:54:18;;;;;;;27.65;4.18;;;12.50;99.90;;;;;;5068491;28;20036;-88
2021/12/30 08:56:43;;;;;;;40.75;5.22;;;9.90;99.90;;;;;;5054553;28;20533;-90
2021/12/30 08:59:13;;;;;;;42.30;5.63;;;13.50;99.90;;;;;;5073185;28;20090;-89
2021/12/30 09:01:39;;;;;;;29.23;4.97;;;11.40;99.90;;;;;;5057085;28;20036;-89
2021/12/30 09:04:04;;;;;;;38.58;5.85;;;11.00;99.90;;;;;;5092161;28;20051;-90
2021/12/30 09:06:30;;;;;;;33.55;4.50;;;14.20;99.90;;;;;;5060686;28;20455;-89
2021/12/30 09:08:59;;;;;;;32.25;3.92;;;12.20;99.90;;;;;;5060670;28;20533;-87
2021/12/30 09:11:25;;;;;;;28.77;3.95;;;12.00;99.90;;;;;;5066576;28;20040;-89
2021/12/30 09:13:50;;;;;;;31.70;5.40;;;11.90;99.90;;;;;;5059063;28;20097;-90
2021/12/30 09:16:18;;;;;;;24.08;4.20;;;10.60;99.90;;;;;;5072775;28;20079;-88
2021/12/30 09:18:44;;;;;;;34.10;4.50;;;11.80;99.90;;;;;;5072149;28;20586;-87
2021/12/30 09:21:10;;;;;;;33.35;3.97;;;12.50;99.90;;;;;;5075869;28;20044;-91
2021/12/30 09:23:41;;;;;;;35.90;5.53;;;10.90;99.90;;;;;;5059530;28;20063;-92
2021/12/30 09:26:09;;;;;;;28.88;4.50;;;12.00;99.90;;;;;;5075402;28;20044;-92
2021/12/30 09:28:35;;;;;;;31.45;4.80;;;11.00;99.90;;;;;;5054419;28;20073;-92
2021/12/30 09:31:01;;;;;;;28.92;3.75;;;13.90;99.90;;;;;;5076909;28;20056;-92
2021/12/30 09:33:27;;;;;;;32.47;4.45;;;14.20;99.90;;;;;;5058566;28;20087;-91
2021/12/30 09:35:59;;;;;;;33.47;4.35;;;10.70;99.90;;;;;;5057798;28;20047;-91
2021/12/30 09:38:26;;;;;;;47.75;5.82;;;11.50;99.90;;;;;;5059846;28;20040;-90
2021/12/30 09:40:55;;;;;;;38.90;5.45;;;11.70;99.90;;;;;;5058373;28;20040;-88
2021/12/30 09:43:24;;;;;;;50.33;6.25;;;11.30;99.90;;;;;;5073721;28;20048;-93
2021/12/30 09:45:50;;;;;;;38.72;5.10;;;11.00;99.90;;;;;;5057591;28;20044;-92
2021/12/30 09:48:19;;;;;;;34.05;4.68;;;10.80;99.90;;;;;;5057050;28;20040;-89
2021/12/30 09:50:47;;;;;;;30.60;5.00;;;11.70;99.90;;;;;;5056283;28;20040;-88
2021/12/30 09:53:18;;;;;;;44.20;5.57;;;10.40;99.90;;;;;;5073933;28;20043;-90
2021/12/30 09:55:47;;;;;;;50.08;5.95;;;11.20;99.90;;;;;;5067419;28;20131;-92
2021/12/30 09:58:13;;;;;;;44.42;6.43;;;11.10;99.90;;;;;;5050089;28;20118;-90
2021/12/30 10:00:39;;;;;;;40.47;6.35;;;13.00;99.90;;;;;;5053810;28;20145;-92
2021/12/30 10:03:05;;;;;;;42.63;4.80;;;12.60;99.90;;;;;;5057984;28;20115;-93
2021/12/30 10:05:34;;;;;;;41.80;5.45;;;12.70;99.90;;;;;;5055132;28;20115;-92
2021/12/30 10:08:09;;;;;;;35.00;5.70;;;13.50;99.90;;;;;;5071560;28;20146;-89
2021/12/30 10:10:38;;;;;;;33.53;5.55;;;11.90;99.90;;;;;;5060381;28;20052;-87
2021/12/30 10:13:16;;;;;;;49.60;5.45;;;11.10;99.90;;;;;;5075382;28;20048;-88
2021/12/30 10:15:45;;;;;;;33.15;4.68;;;12.40;99.90;;;;;;5075588;28;20048;-86
2021/12/30 10:18:11;;;;;;;34.97;5.90;;;13.30;99.90;;;;;;5071435;28;20043;-86
2021/12/30 10:20:40;;;;;;;42.28;6.20;;;11.00;99.90;;;;;;5059559;28;20053;-88
2021/12/30 10:23:17;;;;;;;26.38;5.05;;;10.90;99.90;;;;;;5076642;28;20044;-88
2021/12/30 10:25:48;;;;;;;64.13;6.75;;;12.30;99.90;;;;;;5060758;28;20040;-91
2021/12/30 10:28:22;;;;;;;46.50;7.20;;;13.70;99.90;;;;;;5059277;28;20044;-87
2021/12/30 10:30:50;;;;;;;47.20;6.07;;;11.20;99.90;;;;;;5076265;28;20419;-89
2021/12/30 10:33:19;;;;;;;63.88;8.30;;;10.50;99.90;;;;;;5064389;28;20093;-93
2021/12/30 10:35:45;;;;;;;60.17;9.20;;;12.50;99.90;;;;;;5064955;28;20446;-94
2021/12/30 10:38:12;;;;;;;40.05;6.85;;;11.80;99.90;;;;;;5067342;28;20080;-91
2021/12/30 10:40:41;;;;;;;62.38;10.20;;;11.00;99.90;;;;;;5039838;28;20037;-88
2021/12/30 10:43:27;;;;;;;50.92;8.40;;;12.30;99.90;;;;;;5039804;28;20052;-87
2021/12/30 10:46:07;;;;;;;58.50;8.60;;;12.50;99.90;;;;;;5056828;28;20040;-89
2021/12/30 10:48:43;;;;;;;54.45;8.02;;;11.40;99.90;;;;;;5051161;28;20408;-89
2021/12/30 10:51:12;;;;;;;58.55;9.10;;;11.80;99.90;;;;;;5075004;28;20419;-87
2021/12/30 10:53:38;;;;;;;36.80;7.25;;;10.70;99.90;;;;;;5075993;28;20059;-90
2021/12/30 10:56:19;;;;;;;82.63;10.18;;;12.50;99.90;;;;;;5076547;28;20488;-90
2021/12/30 10:58:45;;;;;;;73.10;8.85;;;11.10;99.90;;;;;;5060221;28;20039;-89
2021/12/30 11:01:17;;;;;;;56.65;8.82;;;11.40;99.90;;;;;;5060071;28;20044;-90
2021/12/30 11:03:55;;;;;;;64.93;10.50;;;11.90;99.90;;;;;;5059314;28;20044;-90
2021/12/30 11:06:21;;;;;;;53.00;8.18;;;12.30;99.90;;;;;;5071768;28;20599;-86
2021/12/30 11:08:49;;;;;;;51.90;7.18;;;11.80;99.90;;;;;;5073453;28;20077;-91
2021/12/30 11:11:23;;;;;;;59.55;9.57;;;12.40;99.90;;;;;;5073602;28;20513;-89
2021/12/30 11:14:05;;;;;;;58.92;8.50;;;12.30;99.90;;;;;;5053496;28;20050;-91
2021/12/30 11:16:32;;;;;;;59.65;8.70;;;10.50;99.90;;;;;;5059868;28;20101;-90
2021/12/30 11:18:58;;;;;;;47.67;7.63;;;11.40;99.90;;;;;;5061374;28;20051;-92
2021/12/30 11:21:36;;;;;;;67.00;9.23;;;12.60;99.90;;;;;;5068573;28;20097;-92
2021/12/30 11:24:05;;;;;;;72.60;9.23;;;12.70;99.90;;;;;;5067063;28;20069;-93
2021/12/30 11:26:41;;;;;;;54.28;8.52;;;12.30;99.90;;;;;;5074711;28;20047;-95
2021/12/30 11:29:10;;;;;;;55.03;8.68;;;12.90;99.90;;;;;;5055559;28;20096;-96
2021/12/30 11:31:36;;;;;;;62.35;9.52;;;11.20;99.90;;;;;;5041905;28;20080;-96
2021/12/30 11:34:05;;;;;;;54.40;8.10;;;11.10;99.90;;;;;;5052897;28;20040;-96
2021/12/30 11:36:33;;;;;;;43.78;6.95;;;10.80;99.90;;;;;;5053276;28;20100;-96
2021/12/30 11:39:07;;;;;;;47.75;9.00;;;11.00;99.90;;;;;;5039578;28;20049;-96
2021/12/30 11:41:37;;;;;;;54.17;8.25;;;12.50;99.90;;;;;;5054236;28;20040;-96
2021/12/30 11:44:29;;;;;;;54.15;7.97;;;12.20;99.90;;;;;;5053843;28;20052;-96
2021/12/30 11:46:57;;;;;;;50.70;8.23;;;11.10;99.90;;;;;;5050229;28;20051;-95
2021/12/30 11:49:22;;;;;;;73.53;8.77;;;13.40;99.90;;;;;;5044739;28;20110;-95
2021/12/30 11:51:51;;;;;;;48.67;7.28;;;12.40;99.90;;;;;;5047683;28;20182;-92
2021/12/30 11:54:39;;;;;;;44.78;8.23;;;10.80;99.90;;;;;;5048389;28;20051;-94
2021/12/30 11:57:25;;;;;;;63.65;9.32;;;12.40;99.90;;;;;;5046618;28;20048;-89
2021/12/30 11:59:52;;;;;;;95.20;10.13;;;12.60;99.90;;;;;;5061763;28;20051;-87
2021/12/30 12:02:32;;;;;;;75.85;9.95;;;11.20;99.90;;;;;;5075902;28;20043;-93
2021/12/30 12:04:58;;;;;;;65.88;10.02;;;11.20;99.90;;;;;;5063361;28;20461;-91
2021/12/30 12:07:24;;;;;;;69.97;9.52;;;11.80;99.90;;;;;;5062308;28;20036;-93
2021/12/30 12:09:50;;;;;;;49.45;7.75;;;12.50;99.90;;;;;;5073249;28;20080;-89
2021/12/30 12:12:32;;;;;;;56.45;8.68;;;13.70;99.90;;;;;;5078563;28;20743;-90
2021/12/30 12:15:00;;;;;;;52.15;8.02;;;11.00;99.90;;;;;;5057228;28;20071;-86
2021/12/30 12:17:32;;;;;;;44.70;8.13;;;13.20;99.90;;;;;;5093252;28;20403;-87
2021/12/30 12:20:11;;;;;;;51.03;8.27;;;11.70;99.90;;;;;;5095110;28;20086;-89
2021/12/30 12:22:36;;;;;;;53.45;8.10;;;11.20;99.90;;;;;;5051844;28;20040;-87
2021/12/30 12:25:11;;;;;;;46.60;7.15;;;11.50;99.90;;;;;;5063335;28;20032;-93
2021/12/30 12:27:40;;;;;;;60.25;8.85;;;12.50;99.90;;;;;;5060718;28;20465;-85
2021/12/30 12:30:20;;;;;;;74.07;9.02;;;11.40;99.90;;;;;;5064871;28;20061;-88
2021/12/30 12:32:47;;;;;;;49.17;6.60;;;12.60;99.90;;;;;;5083106;28;20496;-86
2021/12/30 12:35:14;;;;;;;55.28;7.45;;;11.30;99.90;;;;;;5075421;28;20049;-92
2021/12/30 12:37:41;;;;;;;41.67;6.40;;;11.20;99.90;;;;;;5063309;28;20063;-93
2021/12/30 12:40:11;;;;;;;61.58;8.25;;;12.80;99.90;;;;;;5063410;28;20453;-94
2021/12/30 12:42:43;;;;;;;59.33;8.40;;;11.20;99.90;;;;;;5062507;28;20048;-93